createdAt,value
2023-05-20T00:02:44.916Z,4.87
2023-05-20T00:06:27.694Z,4.70
2023-05-20T00:10:11.143Z,5.27
2023-05-20T00:13:53.814Z,5.40
2023-05-20T00:17:37.914Z,4.80
2023-05-20T00:21:20.703Z,5.07
2023-05-20T00:25:03.394Z,5.03
2023-05-20T00:28:48.014Z,5.30
2023-05-20T00:32:31.002Z,5.10
2023-05-20T00:36:15.250Z,4.70
2023-05-20T00:39:57.956Z,5.10
2023-05-20T00:43:41.369Z,5.10
2023-05-20T00:47:27.610Z,5.47
2023-05-20T00:51:11.301Z,4.93
2023-05-20T00:54:55.491Z,5.00
2023-05-20T00:58:38.933Z,5.03
2023-05-20T01:02:21.787Z,5.27
2023-05-20T01:06:04.797Z,5.37
2023-05-20T01:09:48.115Z,5.30
2023-05-20T01:13:34.957Z,5.03
2023-05-20T01:17:21.082Z,5.60
2023-05-20T01:21:04.859Z,5.70
2023-05-20T01:24:49.364Z,5.40
2023-05-20T01:28:32.117Z,5.80
2023-05-20T01:32:20.813Z,5.90
2023-05-20T01:36:03.644Z,5.77
2023-05-20T01:39:48.342Z,5.80
2023-05-20T01:43:32.574Z,6.07
2023-05-20T01:47:15.316Z,5.90
2023-05-20T01:50:58.032Z,6.00
2023-05-20T01:54:40.709Z,5.80
2023-05-20T01:58:23.425Z,5.77
2023-05-20T02:02:07.608Z,6.33
2023-05-20T02:05:50.504Z,6.47
2023-05-20T02:09:33.249Z,6.57
2023-05-20T02:13:15.933Z,6.53
2023-05-20T02:16:58.699Z,6.20
2023-05-20T02:20:42.844Z,6.40
2023-05-20T02:24:25.811Z,6.37
2023-05-20T02:28:10.726Z,7.47
2023-05-20T02:31:53.552Z,6.90
2023-05-20T02:35:36.608Z,6.90
2023-05-20T02:39:20.730Z,6.87
2023-05-20T02:43:04.222Z,7.30
2023-05-20T02:46:46.975Z,8.63
2023-05-20T02:50:29.615Z,8.53
2023-05-20T02:54:12.479Z,8.67
2023-05-20T02:57:56.799Z,7.90
2023-05-20T03:01:40.495Z,8.20
2023-05-20T03:05:23.468Z,10.20
2023-05-20T03:09:06.257Z,10.67
2023-05-20T03:12:49.050Z,10.40
2023-05-20T03:16:35.502Z,11.17
2023-05-20T03:20:18.727Z,12.17
2023-05-20T03:24:01.464Z,12.27
2023-05-20T03:27:44.788Z,13.57
2023-05-20T03:31:27.551Z,14.27
2023-05-20T03:35:11.848Z,14.10
2023-05-20T03:38:54.613Z,14.37
2023-05-20T03:42:37.410Z,14.83
2023-05-20T03:46:20.125Z,14.60
2023-05-20T03:50:02.895Z,14.50
2023-05-20T03:53:46.919Z,14.07
2023-05-20T03:57:30.449Z,13.93
2023-05-20T04:01:14.332Z,14.00
2023-05-20T04:04:57.856Z,14.53
2023-05-20T04:08:40.793Z,14.07
2023-05-20T04:12:26.084Z,14.87
2023-05-20T04:16:09.007Z,13.83
2023-05-20T04:19:51.875Z,12.97
2023-05-20T04:23:34.565Z,13.80
2023-05-20T04:27:17.334Z,13.13
2023-05-20T04:31:02.777Z,13.67
2023-05-20T04:34:46.109Z,13.87
2023-05-20T04:38:30.134Z,14.40
2023-05-20T04:42:13.510Z,14.03
2023-05-20T04:45:56.258Z,14.10
2023-05-20T04:49:40.405Z,14.30
2023-05-20T04:53:23.404Z,14.33
2023-05-20T04:57:06.454Z,15.37
2023-05-20T05:00:49.229Z,14.97
2023-05-20T05:04:32.025Z,15.03
2023-05-20T05:08:17.271Z,15.57
2023-05-20T05:12:00.000Z,14.43
2023-05-20T05:15:42.745Z,14.60
2023-05-20T05:19:25.713Z,15.20
2023-05-20T05:23:08.771Z,14.23
2023-05-20T05:26:56.186Z,13.77
2023-05-20T05:30:38.965Z,13.83
2023-05-20T05:34:21.684Z,13.10
2023-05-20T05:38:04.416Z,12.53
2023-05-20T05:41:47.142Z,14.07
2023-05-20T05:45:31.398Z,14.00
2023-05-20T05:49:14.283Z,14.60
2023-05-20T05:52:57.014Z,13.90
2023-05-20T05:56:39.861Z,14.07
2023-05-20T06:00:22.735Z,13.30
2023-05-20T06:04:07.100Z,14.60
2023-05-20T06:07:49.851Z,13.73
2023-05-20T06:11:32.555Z,14.40
2023-05-20T06:15:15.315Z,12.40
2023-05-20T06:18:59.205Z,12.37
2023-05-20T06:22:44.335Z,12.80
2023-05-20T06:26:27.041Z,13.03
2023-05-20T06:30:10.397Z,13.07
2023-05-20T06:33:53.093Z,12.67
2023-05-20T06:37:35.796Z,12.83
2023-05-20T06:41:20.150Z,13.07
2023-05-20T06:45:07.081Z,12.97
2023-05-20T06:48:49.788Z,13.00
2023-05-20T06:52:33.820Z,13.50
2023-05-20T06:56:16.691Z,13.57
2023-05-20T07:00:00.780Z,13.63
2023-05-20T07:03:44.353Z,13.40
2023-05-20T07:07:27.180Z,13.93
2023-05-20T07:11:10.036Z,14.13
2023-05-20T07:14:52.735Z,13.13
2023-05-20T07:18:37.011Z,13.40
2023-05-20T07:22:19.925Z,12.90
2023-05-20T07:26:02.680Z,13.47
2023-05-20T07:29:45.643Z,13.97
2023-05-20T07:33:29.648Z,15.00
2023-05-20T07:37:13.761Z,13.53
2023-05-20T07:40:56.516Z,13.07
2023-05-20T07:44:40.103Z,14.30
2023-05-20T07:48:22.916Z,14.20
2023-05-20T07:52:06.462Z,16.07
2023-05-20T07:55:50.666Z,13.03
2023-05-20T07:59:33.419Z,13.57
2023-05-20T08:03:16.205Z,13.57
2023-05-20T08:06:59.029Z,14.47
2023-05-20T08:10:43.951Z,13.00
2023-05-20T08:14:28.050Z,12.70
2023-05-20T08:18:11.011Z,13.70
2023-05-20T08:21:54.410Z,13.70
2023-05-20T08:25:38.173Z,12.57
2023-05-20T08:29:20.901Z,12.93
2023-05-20T08:33:05.145Z,13.07
2023-05-20T08:36:47.933Z,12.57
2023-05-20T08:40:30.691Z,11.07
2023-05-20T08:44:13.659Z,10.97
2023-05-20T08:47:56.438Z,11.33
2023-05-20T08:51:42.922Z,11.23
2023-05-20T08:55:27.024Z,10.60
2023-05-20T08:59:10.257Z,10.27
2023-05-20T09:02:53.295Z,9.53
2023-05-20T09:06:45.416Z,10.73
2023-05-20T09:10:28.142Z,16.10
2023-05-20T09:14:10.865Z,11.77
2023-05-20T09:17:53.675Z,13.10
2023-05-20T09:21:37.385Z,10.33
2023-05-20T09:25:34.303Z,9.67
2023-05-20T09:29:17.240Z,8.77
2023-05-20T09:33:01.438Z,7.87
2023-05-20T09:36:45.394Z,8.40
2023-05-20T09:40:31.366Z,6.93
2023-05-20T09:44:16.325Z,6.50
2023-05-20T09:47:59.161Z,6.73
2023-05-20T09:51:43.157Z,6.67
2023-05-20T09:55:26.481Z,6.20
2023-05-20T09:59:11.898Z,6.10
2023-05-20T10:02:55.033Z,5.40
2023-05-20T10:07:06.570Z,4.80
2023-05-20T10:10:53.463Z,5.35
2023-05-20T10:14:49.246Z,5.00
2023-05-20T10:18:41.545Z,4.23
2023-05-20T10:22:29.095Z,4.80
2023-05-20T10:26:11.903Z,4.72
2023-05-20T10:29:57.128Z,4.10
2023-05-20T10:33:44.088Z,4.60
2023-05-20T10:37:29.060Z,5.50
2023-05-20T10:41:12.132Z,5.17
2023-05-20T10:44:56.251Z,4.40
2023-05-20T10:48:43.992Z,4.93
2023-05-20T10:52:27.019Z,5.18
2023-05-20T10:56:22.976Z,4.57
2023-05-20T11:00:06.692Z,4.95
2023-05-20T11:03:50.699Z,3.60
2023-05-20T11:07:34.182Z,3.58
2023-05-20T11:11:17.207Z,3.03
2023-05-20T11:15:04.784Z,3.42
2023-05-20T11:18:49.803Z,3.53
2023-05-20T11:22:32.633Z,3.55
2023-05-20T11:26:15.517Z,3.50
2023-05-20T11:29:58.394Z,3.53
2023-05-20T11:33:44.738Z,3.90
2023-05-20T11:37:30.144Z,3.40
2023-05-20T11:41:12.811Z,3.70
2023-05-20T11:45:01.448Z,3.55
2023-05-20T11:48:54.512Z,3.70
2023-05-20T11:52:37.268Z,4.20
2023-05-20T11:56:20.026Z,4.05
2023-05-20T12:00:02.893Z,4.40
2023-05-20T12:03:45.803Z,4.00
2023-05-20T12:07:29.959Z,3.30
2023-05-20T12:11:12.676Z,6.95
2023-05-20T12:14:55.435Z,3.85
2023-05-20T12:18:38.069Z,3.17
2023-05-20T12:22:20.868Z,3.58
2023-05-20T12:26:05.663Z,3.90
2023-05-20T12:29:48.377Z,3.60
2023-05-20T12:33:31.050Z,3.47
2023-05-20T12:37:13.820Z,3.65
2023-05-20T12:40:56.639Z,3.50
2023-05-20T12:44:40.684Z,3.25
2023-05-20T12:48:23.419Z,3.50
2023-05-20T12:52:11.924Z,3.78
2023-05-20T12:56:01.828Z,3.83
2023-05-20T12:59:46.016Z,3.97
2023-05-20T13:03:28.697Z,4.03
2023-05-20T13:07:11.387Z,4.43
2023-05-20T13:10:54.210Z,3.85
2023-05-20T13:14:37.418Z,3.95
2023-05-20T13:18:21.528Z,4.63
2023-05-20T13:22:04.266Z,6.55
2023-05-20T13:25:46.950Z,5.95
2023-05-20T13:29:29.713Z,5.53
2023-05-20T13:33:12.431Z,6.15
2023-05-20T13:36:56.565Z,6.38
2023-05-20T13:40:39.292Z,5.93
2023-05-20T13:44:22.109Z,5.60
2023-05-20T13:48:05.712Z,6.65
2023-05-20T13:51:48.465Z,6.50
2023-05-20T13:55:32.832Z,7.85
2023-05-20T13:59:15.569Z,6.63
2023-05-20T14:03:00.510Z,6.18
2023-05-20T14:06:43.212Z,6.47
2023-05-20T14:10:25.925Z,6.70
2023-05-20T14:14:10.201Z,6.65
2023-05-20T14:17:52.916Z,6.07
2023-05-20T14:21:35.648Z,6.43
2023-05-20T14:25:18.367Z,7.15
2023-05-20T14:29:01.193Z,6.55
2023-05-20T14:32:45.438Z,7.15
2023-05-20T14:36:28.098Z,6.70
2023-05-20T14:40:14.116Z,6.53
2023-05-20T14:43:56.771Z,7.40
2023-05-20T14:47:40.058Z,7.47
2023-05-20T14:51:24.351Z,7.43
2023-05-20T14:55:09.200Z,7.45
2023-05-20T14:58:51.874Z,7.45
2023-05-20T15:02:34.686Z,8.02
2023-05-20T15:06:17.452Z,7.68
2023-05-20T15:10:01.924Z,7.55
2023-05-20T15:13:46.375Z,7.63
2023-05-20T15:17:29.182Z,7.70
2023-05-20T15:21:11.981Z,7.03
2023-05-20T15:24:54.625Z,7.13
2023-05-20T15:28:38.629Z,7.95
2023-05-20T15:32:21.409Z,8.02
2023-05-20T15:36:04.563Z,7.55
2023-05-20T15:39:47.234Z,8.50
2023-05-20T15:43:29.966Z,8.80
2023-05-20T15:47:14.084Z,8.23
2023-05-20T15:50:56.862Z,7.15
2023-05-20T15:54:39.608Z,6.50
2023-05-20T15:58:22.307Z,6.82
2023-05-20T16:02:05.168Z,6.88
2023-05-20T16:05:49.206Z,6.82
2023-05-20T16:09:31.837Z,7.10
2023-05-20T16:13:14.560Z,6.45
2023-05-20T16:16:57.253Z,7.00
2023-05-20T16:20:39.914Z,6.95
2023-05-20T16:24:24.041Z,7.80
2023-05-20T16:28:06.711Z,6.80
2023-05-20T16:31:49.430Z,14.57
2023-05-20T16:35:32.110Z,9.25
2023-05-20T16:39:14.925Z,9.05
2023-05-20T16:42:58.960Z,15.48
2023-05-20T16:46:41.701Z,15.20
2023-05-20T16:50:24.685Z,9.05
2023-05-20T16:54:08.346Z,10.00
2023-05-20T16:57:51.126Z,8.13
2023-05-20T17:01:35.384Z,13.80
2023-05-20T17:05:18.360Z,8.30
2023-05-20T17:09:02.822Z,8.48
2023-05-20T17:12:45.770Z,8.02
2023-05-20T17:16:28.618Z,9.40
2023-05-20T17:20:13.780Z,9.05
2023-05-20T17:23:56.525Z,12.10
2023-05-20T17:27:41.903Z,9.50
2023-05-20T17:31:24.581Z,9.88
2023-05-20T17:35:08.086Z,30.02
2023-05-20T17:38:52.471Z,9.60
2023-05-20T17:42:35.185Z,8.13
2023-05-20T17:46:17.892Z,8.43
2023-05-20T17:50:02.570Z,9.23
2023-05-20T17:53:45.706Z,23.08
2023-05-20T17:57:29.807Z,8.38
2023-05-20T18:01:12.516Z,9.18
2023-05-20T18:04:55.225Z,10.02
2023-05-20T18:08:37.871Z,9.50
2023-05-20T18:12:20.535Z,9.02
2023-05-20T18:16:05.054Z,11.75
2023-05-20T18:19:47.855Z,9.18
2023-05-20T18:23:30.662Z,13.93
2023-05-20T18:27:13.431Z,8.50
2023-05-20T18:30:57.504Z,8.80
2023-05-20T18:34:41.588Z,9.13
2023-05-20T18:38:24.662Z,26.05
2023-05-20T18:42:08.206Z,23.13
2023-05-20T18:45:52.357Z,11.02
2023-05-20T18:49:35.115Z,11.73
2023-05-20T18:53:19.269Z,12.82
2023-05-20T18:57:04.024Z,10.02
2023-05-20T19:00:46.892Z,9.95
2023-05-20T19:04:29.698Z,10.18
2023-05-20T19:08:12.477Z,10.55
2023-05-20T19:11:58.994Z,10.32
2023-05-20T19:15:41.952Z,10.10
2023-05-20T19:19:24.713Z,10.75
2023-05-20T19:23:07.490Z,10.00
2023-05-20T19:26:50.247Z,12.65
2023-05-20T19:30:34.359Z,13.60
2023-05-20T19:34:17.229Z,12.20
2023-05-20T19:38:00.150Z,10.32
2023-05-20T19:41:42.903Z,11.02
2023-05-20T19:45:25.879Z,9.80
2023-05-20T19:49:10.060Z,9.98
2023-05-20T19:52:52.808Z,10.45
2023-05-20T19:56:35.561Z,9.90
2023-05-20T20:00:18.861Z,9.75
2023-05-20T20:04:04.481Z,9.70
2023-05-20T20:07:49.523Z,10.20
2023-05-20T20:11:32.232Z,10.27
2023-05-20T20:15:15.389Z,10.25
2023-05-20T20:18:58.190Z,10.52
2023-05-20T20:22:41.289Z,10.07
2023-05-20T20:26:26.646Z,9.43
2023-05-20T20:30:10.646Z,9.93
2023-05-20T20:33:53.481Z,11.85
2023-05-20T20:37:37.756Z,11.15
2023-05-20T20:41:23.146Z,10.13
2023-05-20T20:45:12.302Z,10.10
2023-05-20T20:48:55.236Z,10.77
2023-05-20T20:52:38.634Z,11.73
2023-05-20T20:56:21.355Z,10.90
2023-05-20T21:00:13.553Z,10.73
2023-05-20T21:03:58.617Z,10.68
2023-05-20T21:07:42.646Z,10.68
2023-05-20T21:11:26.072Z,10.57
2023-05-20T21:15:12.409Z,10.90
2023-05-20T21:18:55.133Z,10.00
2023-05-20T21:22:39.307Z,11.30
2023-05-20T21:26:22.325Z,10.77
2023-05-20T21:30:05.599Z,9.53
2023-05-20T21:33:48.355Z,9.93
2023-05-20T21:37:31.184Z,10.93
2023-05-20T21:41:16.614Z,10.90
2023-05-20T21:44:59.612Z,11.10
2023-05-20T21:48:44.028Z,12.10
2023-05-20T21:52:26.864Z,18.37
2023-05-20T21:56:09.653Z,11.73
2023-05-20T21:59:53.695Z,10.77
2023-05-20T22:03:36.885Z,12.40
2023-05-20T22:07:19.723Z,10.67
2023-05-20T22:11:05.473Z,11.17
2023-05-20T22:14:48.463Z,15.00
2023-05-20T22:18:32.678Z,13.90
2023-05-20T22:22:15.441Z,12.83
2023-05-20T22:25:58.233Z,11.50
2023-05-20T22:29:41.264Z,11.13
2023-05-20T22:33:24.392Z,11.37
2023-05-20T22:37:09.466Z,10.07
2023-05-20T22:40:52.294Z,9.57
2023-05-20T22:44:37.967Z,11.27
2023-05-20T22:48:22.912Z,11.00
2023-05-20T22:52:07.713Z,10.25
2023-05-20T22:55:51.879Z,11.00
2023-05-20T22:59:36.576Z,9.80
2023-05-20T23:03:19.386Z,10.73
2023-05-20T23:07:02.108Z,12.43
2023-05-20T23:10:44.806Z,11.17
2023-05-20T23:14:28.900Z,11.50
2023-05-20T23:18:12.217Z,10.73
2023-05-20T23:21:54.993Z,12.17
2023-05-20T23:25:37.852Z,10.97
2023-05-20T23:29:21.445Z,10.70
2023-05-20T23:33:05.653Z,10.80
2023-05-20T23:36:49.930Z,9.97
2023-05-20T23:40:32.648Z,9.83
2023-05-20T23:44:15.795Z,10.63
2023-05-20T23:48:03.450Z,10.30
2023-05-20T23:51:47.549Z,10.90
2023-05-20T23:55:30.300Z,9.90
2023-05-20T23:59:13.107Z,10.73
